createdAt,value
2023-09-20T00:02:41.249Z,0.40
2023-09-20T00:05:18.652Z,0.40
2023-09-20T00:07:48.619Z,0.30
2023-09-20T00:10:17.044Z,0.50
2023-09-20T00:12:52.078Z,0.30
2023-09-20T00:15:25.023Z,0.43
2023-09-20T00:17:55.352Z,0.40
2023-09-20T00:20:23.229Z,0.55
2023-09-20T00:23:07.712Z,0.32
2023-09-20T00:25:36.195Z,0.40
2023-09-20T00:28:07.850Z,0.60
2023-09-20T00:30:36.005Z,0.45
2023-09-20T00:33:24.655Z,0.63
2023-09-20T00:36:09.416Z,1.08
2023-09-20T00:38:54.671Z,0.63
2023-09-20T00:41:22.648Z,0.50
2023-09-20T00:44:07.503Z,0.60
2023-09-20T00:46:40.046Z,0.68
2023-09-20T00:49:08.084Z,0.70
2023-09-20T00:51:39.804Z,0.70
2023-09-20T00:54:08.261Z,0.82
2023-09-20T00:56:51.110Z,0.70
2023-09-20T00:59:36.695Z,0.45
2023-09-20T01:04:59.931Z,0.57
2023-09-20T01:07:28.217Z,0.50
2023-09-20T01:09:56.358Z,0.60
2023-09-20T01:12:24.358Z,0.70
2023-09-20T01:14:53.758Z,0.55
2023-09-20T01:17:21.927Z,0.50
2023-09-20T01:19:49.966Z,0.50
2023-09-20T01:22:19.727Z,0.55
2023-09-20T01:24:48.693Z,0.68
2023-09-20T01:27:16.689Z,0.88
2023-09-20T01:29:44.961Z,0.50
2023-09-20T01:32:15.379Z,0.50
2023-09-20T01:37:12.167Z,0.35
2023-09-20T01:39:41.468Z,0.35
2023-09-20T01:42:10.000Z,0.60
2023-09-20T01:44:38.703Z,0.63
2023-09-20T01:47:07.669Z,0.50
2023-09-20T01:49:36.453Z,0.60
2023-09-20T01:52:08.451Z,0.73
2023-09-20T01:54:36.427Z,0.60
2023-09-20T01:57:07.036Z,0.40
2023-09-20T01:59:35.004Z,0.30
2023-09-20T02:02:04.278Z,0.50
2023-09-20T02:04:33.104Z,0.50
2023-09-20T02:07:01.599Z,0.38
2023-09-20T02:09:29.467Z,0.50
2023-09-20T02:11:57.392Z,0.20
2023-09-20T02:14:26.667Z,0.35
2023-09-20T02:16:54.561Z,0.30
2023-09-20T02:19:22.517Z,0.30
2023-09-20T02:21:50.508Z,0.30
2023-09-20T02:24:18.390Z,0.60
2023-09-20T02:26:50.062Z,0.40
2023-09-20T02:29:18.316Z,0.30
2023-09-20T02:31:48.756Z,0.30
2023-09-20T02:36:46.009Z,0.40
2023-09-20T02:39:16.745Z,0.20
2023-09-20T02:41:44.597Z,0.40
2023-09-20T02:44:14.884Z,0.47
2023-09-20T02:46:42.781Z,0.30
2023-09-20T02:49:12.874Z,0.38
2023-09-20T02:51:40.934Z,0.43
2023-09-20T02:54:10.073Z,0.38
2023-09-20T02:56:38.048Z,0.52
2023-09-20T02:59:08.482Z,0.43
2023-09-20T03:04:05.413Z,0.20
2023-09-20T03:06:34.720Z,0.30
2023-09-20T03:09:02.857Z,0.40
2023-09-20T03:11:30.781Z,0.40
2023-09-20T03:13:58.685Z,0.30
2023-09-20T03:16:26.635Z,0.30
2023-09-20T03:18:54.996Z,0.22
2023-09-20T03:21:24.436Z,0.15
2023-09-20T03:23:53.713Z,0.30
2023-09-20T03:26:21.612Z,0.30
2023-09-20T03:28:50.052Z,0.30
2023-09-20T03:31:20.650Z,0.47
2023-09-20T03:33:50.166Z,0.40
2023-09-20T03:36:18.872Z,0.40
2023-09-20T03:38:47.033Z,0.52
2023-09-20T03:41:16.387Z,0.40
2023-09-20T03:43:46.838Z,0.40
2023-09-20T03:46:15.074Z,0.38
2023-09-20T03:48:43.320Z,0.40
2023-09-20T03:51:16.637Z,0.45
2023-09-20T03:53:44.647Z,0.70
2023-09-20T03:56:14.374Z,0.40
2023-09-20T03:58:44.127Z,0.40
2023-09-20T04:01:13.235Z,0.50
2023-09-20T04:03:43.264Z,0.30
2023-09-20T04:06:11.692Z,0.52
2023-09-20T04:08:40.296Z,0.57
2023-09-20T04:11:08.564Z,0.38
2023-09-20T04:13:36.491Z,0.60
2023-09-20T04:16:06.050Z,0.52
2023-09-20T04:18:34.363Z,0.40
2023-09-20T04:21:02.726Z,0.40
2023-09-20T04:23:33.361Z,0.60
2023-09-20T04:26:01.452Z,0.65
2023-09-20T04:28:29.301Z,0.77
2023-09-20T04:30:57.295Z,0.57
2023-09-20T04:33:26.565Z,0.43
2023-09-20T04:35:56.163Z,0.50
2023-09-20T04:38:24.156Z,0.63
2023-09-20T04:40:52.237Z,0.60
2023-09-20T04:43:20.922Z,0.40
2023-09-20T04:45:48.826Z,0.57
2023-09-20T04:48:16.793Z,0.50
2023-09-20T04:50:46.912Z,0.40
2023-09-20T04:53:15.312Z,0.47
2023-09-20T04:55:43.218Z,0.68
2023-09-20T04:58:11.494Z,0.52
2023-09-20T05:00:39.608Z,0.40
2023-09-20T05:03:07.672Z,0.50
2023-09-20T05:05:35.733Z,0.50
2023-09-20T05:08:06.358Z,0.45
2023-09-20T05:10:34.422Z,0.50
2023-09-20T05:13:02.415Z,0.47
2023-09-20T05:15:30.324Z,0.47
2023-09-20T05:17:58.409Z,0.35
2023-09-20T05:20:28.194Z,0.43
2023-09-20T05:22:56.203Z,0.40
2023-09-20T05:25:25.463Z,0.52
2023-09-20T05:27:55.487Z,0.50
2023-09-20T05:30:23.604Z,0.52
2023-09-20T05:32:53.314Z,0.77
2023-09-20T05:35:21.560Z,0.50
2023-09-20T05:37:49.606Z,0.77
2023-09-20T05:40:19.614Z,0.63
2023-09-20T05:42:49.791Z,0.80
2023-09-20T05:45:17.661Z,0.60
2023-09-20T05:47:45.923Z,0.50
2023-09-20T05:50:15.568Z,0.70
2023-09-20T05:52:44.895Z,0.52
2023-09-20T05:55:15.391Z,0.80
2023-09-20T05:57:44.364Z,0.70
2023-09-20T06:00:17.584Z,0.47
2023-09-20T06:02:46.393Z,0.52
2023-09-20T06:05:16.019Z,0.40
2023-09-20T06:07:46.114Z,0.53
2023-09-20T06:10:16.707Z,0.50
2023-09-20T06:15:15.164Z,0.50
2023-09-20T06:17:44.611Z,0.60
2023-09-20T06:20:14.452Z,0.60
2023-09-20T06:22:42.513Z,0.70
2023-09-20T06:25:13.104Z,0.70
2023-09-20T06:27:41.407Z,0.60
2023-09-20T06:30:14.219Z,0.57
2023-09-20T06:32:45.426Z,0.70
2023-09-20T06:35:16.459Z,0.65
2023-09-20T06:37:47.316Z,0.60
2023-09-20T06:40:23.640Z,0.52
2023-09-20T06:42:52.340Z,0.65
2023-09-20T06:45:20.637Z,0.60
2023-09-20T06:47:50.455Z,0.65
2023-09-20T06:50:18.763Z,0.70
2023-09-20T06:52:48.207Z,0.77
2023-09-20T06:55:17.703Z,0.80
2023-09-20T06:57:47.954Z,0.45
2023-09-20T07:00:28.244Z,0.57
2023-09-20T07:02:59.261Z,0.80
2023-09-20T07:05:29.496Z,0.60
2023-09-20T07:08:00.060Z,0.70
2023-09-20T07:10:29.507Z,0.93
2023-09-20T07:12:57.460Z,0.60
2023-09-20T07:15:27.133Z,1.33
2023-09-20T07:18:12.544Z,1.27
2023-09-20T07:20:43.403Z,0.60
2023-09-20T07:23:13.961Z,0.43
2023-09-20T07:28:10.994Z,0.65
2023-09-20T07:30:45.692Z,0.90
2023-09-20T07:33:15.811Z,0.70
2023-09-20T07:35:50.492Z,0.55
2023-09-20T07:38:27.705Z,0.63
2023-09-20T07:41:07.098Z,0.73
2023-09-20T07:43:35.202Z,0.68
2023-09-20T07:46:07.943Z,1.00
2023-09-20T07:48:39.539Z,0.70
2023-09-20T07:51:15.353Z,0.60
2023-09-20T07:53:45.312Z,0.75
2023-09-20T07:56:17.139Z,0.63
2023-09-20T07:58:45.896Z,0.65
2023-09-20T08:01:23.206Z,0.60
2023-09-20T08:03:55.063Z,0.80
2023-09-20T08:06:27.566Z,0.60
2023-09-20T08:08:55.789Z,0.60
2023-09-20T08:11:23.767Z,1.00
2023-09-20T08:13:53.091Z,1.02
2023-09-20T08:16:21.795Z,0.98
2023-09-20T08:19:04.669Z,0.70
2023-09-20T08:21:34.939Z,0.75
2023-09-20T08:24:21.653Z,0.75
2023-09-20T08:27:08.176Z,0.88
2023-09-20T08:29:53.829Z,1.20
2023-09-20T08:32:40.392Z,0.90
2023-09-20T08:35:26.448Z,0.73
2023-09-20T08:38:13.460Z,0.60
2023-09-20T08:40:59.240Z,0.60
2023-09-20T08:43:44.933Z,1.00
2023-09-20T08:46:30.254Z,0.90
2023-09-20T08:49:15.394Z,1.13
2023-09-20T08:52:12.730Z,1.00
2023-09-20T08:55:00.073Z,0.60
2023-09-20T08:57:46.663Z,0.73
2023-09-20T09:00:26.723Z,0.70
2023-09-20T09:05:26.318Z,0.50
2023-09-20T09:07:54.458Z,0.73
2023-09-20T09:10:23.774Z,0.60
2023-09-20T09:12:51.943Z,0.80
2023-09-20T09:15:20.019Z,0.85
2023-09-20T09:17:49.046Z,0.70
2023-09-20T09:20:20.448Z,1.40
2023-09-20T09:22:48.916Z,1.88
2023-09-20T09:25:19.595Z,0.63
2023-09-20T09:27:48.831Z,0.68
2023-09-20T09:30:18.295Z,1.00
2023-09-20T09:32:49.379Z,0.73
2023-09-20T09:35:27.684Z,0.85
2023-09-20T09:38:03.449Z,0.60
2023-09-20T09:40:31.786Z,0.60
2023-09-20T09:43:16.868Z,0.68
2023-09-20T09:45:45.943Z,0.55
2023-09-20T09:48:17.422Z,0.85
2023-09-20T09:50:47.404Z,0.70
2023-09-20T09:53:16.639Z,0.60
2023-09-20T09:55:44.604Z,0.60
2023-09-20T09:58:13.348Z,0.68
2023-09-20T10:00:46.713Z,0.60
2023-09-20T10:03:27.649Z,0.70
2023-09-20T10:06:02.534Z,0.80
2023-09-20T10:08:33.900Z,0.80
2023-09-20T10:11:03.021Z,0.70
2023-09-20T10:13:32.238Z,0.85
2023-09-20T10:16:03.308Z,0.70
2023-09-20T10:18:36.641Z,0.68
2023-09-20T10:21:12.261Z,1.20
2023-09-20T10:23:40.551Z,0.80
2023-09-20T10:26:18.462Z,0.90
2023-09-20T10:28:48.632Z,0.70
2023-09-20T10:31:19.320Z,0.90
2023-09-20T10:33:49.742Z,0.55
2023-09-20T10:38:49.961Z,0.40
2023-09-20T10:41:18.607Z,0.50
2023-09-20T10:43:50.038Z,0.57
2023-09-20T10:46:21.137Z,0.60
2023-09-20T10:48:52.119Z,0.75
2023-09-20T10:51:42.908Z,0.50
2023-09-20T10:57:12.208Z,0.70
2023-09-20T10:59:41.957Z,0.82
2023-09-20T11:02:14.185Z,0.98
2023-09-20T11:04:42.784Z,0.60
2023-09-20T11:07:11.069Z,0.57
2023-09-20T11:09:40.433Z,0.70
2023-09-20T11:12:09.970Z,0.90
2023-09-20T11:14:42.098Z,0.68
2023-09-20T11:17:16.026Z,0.75
2023-09-20T11:19:44.787Z,0.60
2023-09-20T11:22:12.860Z,0.50
2023-09-20T11:24:43.454Z,0.50
2023-09-20T11:27:11.830Z,0.77
2023-09-20T11:29:44.906Z,0.57
2023-09-20T11:32:16.560Z,0.60
2023-09-20T11:34:49.565Z,0.80
2023-09-20T11:37:19.952Z,0.80
2023-09-20T11:39:48.642Z,0.70
2023-09-20T11:42:27.622Z,0.40
2023-09-20T11:45:10.381Z,0.65
2023-09-20T11:47:49.593Z,0.40
2023-09-20T11:50:18.273Z,0.55
2023-09-20T11:52:47.745Z,0.65
2023-09-20T11:55:16.592Z,0.60
2023-09-20T11:57:47.113Z,0.70
2023-09-20T12:00:18.995Z,0.50
2023-09-20T12:02:50.153Z,0.43
2023-09-20T12:05:19.729Z,0.60
2023-09-20T12:07:55.214Z,0.55
2023-09-20T12:10:23.134Z,0.65
2023-09-20T12:12:52.685Z,0.57
2023-09-20T12:15:21.263Z,0.60
2023-09-20T12:17:51.948Z,0.90
2023-09-20T12:20:19.909Z,0.60
2023-09-20T12:22:47.783Z,0.70
2023-09-20T12:25:16.922Z,0.80
2023-09-20T12:27:45.145Z,0.70
2023-09-20T12:30:14.664Z,1.00
2023-09-20T12:32:42.934Z,0.63
2023-09-20T12:35:14.665Z,0.80
2023-09-20T12:37:42.653Z,0.60
2023-09-20T12:40:12.202Z,0.82
2023-09-20T12:42:40.618Z,0.40
2023-09-20T12:45:10.442Z,0.52
2023-09-20T12:47:41.674Z,0.70
2023-09-20T12:50:14.474Z,0.50
2023-09-20T12:52:44.464Z,0.70
2023-09-20T12:55:13.336Z,0.80
2023-09-20T12:57:42.382Z,0.68
2023-09-20T13:00:15.353Z,0.60
2023-09-20T13:02:46.915Z,0.88
2023-09-20T13:05:16.721Z,0.90
2023-09-20T13:07:45.011Z,0.65
2023-09-20T13:10:15.046Z,0.70
2023-09-20T13:12:43.379Z,0.68
2023-09-20T13:15:13.926Z,0.82
2023-09-20T13:17:42.329Z,0.40
2023-09-20T13:20:14.035Z,0.50
2023-09-20T13:22:43.844Z,0.88
2023-09-20T13:25:17.080Z,0.40
2023-09-20T13:27:45.313Z,0.65
2023-09-20T13:30:14.844Z,0.85
2023-09-20T13:32:43.414Z,0.70
2023-09-20T13:35:12.491Z,0.57
2023-09-20T13:37:41.794Z,0.70
2023-09-20T13:40:14.283Z,0.50
2023-09-20T13:42:43.389Z,0.52
2023-09-20T13:45:12.669Z,0.60
2023-09-20T13:47:43.107Z,0.63
2023-09-20T13:50:14.127Z,0.55
2023-09-20T13:52:43.977Z,0.70
2023-09-20T13:55:15.498Z,0.70
2023-09-20T13:57:44.567Z,0.63
2023-09-20T14:00:15.126Z,0.95
2023-09-20T14:02:43.358Z,1.00
2023-09-20T14:05:16.279Z,0.95
2023-09-20T14:07:46.064Z,0.80
2023-09-20T14:10:18.335Z,0.98
2023-09-20T14:12:48.345Z,0.93
2023-09-20T14:15:17.302Z,1.38
2023-09-20T14:17:47.575Z,0.95
2023-09-20T14:20:19.171Z,1.20
2023-09-20T14:22:47.285Z,1.35
2023-09-20T14:25:16.765Z,1.40
2023-09-20T14:27:45.347Z,1.52
2023-09-20T14:30:16.700Z,1.70
2023-09-20T14:32:46.320Z,1.33
2023-09-20T14:35:15.087Z,1.53
2023-09-20T14:37:44.711Z,1.80
2023-09-20T14:40:21.523Z,1.70
2023-09-20T14:42:54.896Z,1.20
2023-09-20T14:45:25.737Z,1.33
2023-09-20T14:47:55.344Z,1.30
2023-09-20T14:50:25.102Z,1.90
2023-09-20T14:52:54.222Z,1.27
2023-09-20T14:55:22.886Z,1.35
2023-09-20T14:57:56.343Z,1.30
2023-09-20T15:00:27.240Z,1.38
2023-09-20T15:02:56.898Z,1.23
2023-09-20T15:05:27.293Z,1.80
2023-09-20T15:07:57.227Z,1.60
2023-09-20T15:10:26.986Z,2.08
2023-09-20T15:13:01.002Z,1.55
2023-09-20T15:15:29.867Z,2.33
2023-09-20T15:17:59.401Z,1.75
2023-09-20T15:20:28.463Z,1.83
2023-09-20T15:22:57.094Z,1.77
2023-09-20T15:25:26.483Z,1.95
2023-09-20T15:27:57.192Z,1.90
2023-09-20T15:32:54.528Z,2.10
2023-09-20T15:35:22.891Z,2.38
2023-09-20T15:37:50.825Z,2.10
2023-09-20T15:40:19.117Z,1.85
2023-09-20T15:42:48.123Z,2.20
2023-09-20T15:45:19.435Z,2.63
2023-09-20T15:47:48.313Z,2.38
2023-09-20T15:50:19.018Z,2.05
2023-09-20T15:52:47.107Z,2.55
2023-09-20T15:55:16.875Z,2.30
2023-09-20T15:57:45.204Z,2.45
2023-09-20T16:00:15.744Z,2.83
2023-09-20T16:02:46.770Z,2.85
2023-09-20T16:07:45.015Z,2.75
2023-09-20T16:10:16.218Z,2.95
2023-09-20T16:12:46.087Z,3.10
2023-09-20T16:15:15.950Z,2.35
2023-09-20T16:17:45.687Z,2.58
2023-09-20T16:20:15.562Z,2.95
2023-09-20T16:22:44.910Z,2.90
2023-09-20T16:25:13.609Z,3.50
2023-09-20T16:27:41.678Z,2.92
2023-09-20T16:30:10.730Z,2.80
2023-09-20T16:32:40.829Z,2.83
2023-09-20T16:35:12.756Z,2.63
2023-09-20T16:37:40.640Z,2.80
2023-09-20T16:40:10.078Z,2.75
2023-09-20T16:42:37.973Z,2.72
2023-09-20T16:45:08.865Z,2.60
2023-09-20T16:47:37.019Z,3.20
2023-09-20T16:50:05.295Z,2.22
2023-09-20T16:52:37.878Z,2.40
2023-09-20T16:55:06.798Z,2.63
2023-09-20T16:57:34.661Z,2.40
2023-09-20T17:00:02.624Z,2.30
2023-09-20T17:02:30.660Z,2.97
2023-09-20T17:04:58.576Z,2.05
2023-09-20T17:07:26.587Z,1.90
2023-09-20T17:09:55.842Z,2.30
2023-09-20T17:12:23.759Z,2.60
2023-09-20T17:14:51.681Z,2.35
2023-09-20T17:17:20.891Z,2.10
2023-09-20T17:19:48.829Z,2.03
2023-09-20T17:22:16.681Z,2.30
2023-09-20T17:24:46.481Z,2.25
2023-09-20T17:27:28.619Z,1.95
2023-09-20T17:29:58.494Z,2.03
2023-09-20T17:32:27.075Z,2.80
2023-09-20T17:34:55.710Z,2.25
2023-09-20T17:37:23.915Z,3.08
2023-09-20T17:39:53.077Z,2.17
2023-09-20T17:42:23.011Z,2.10
2023-09-20T17:44:50.883Z,1.88
2023-09-20T17:47:18.811Z,2.17
2023-09-20T17:49:46.733Z,2.92
2023-09-20T17:52:15.832Z,2.35
2023-09-20T17:54:43.678Z,2.30
2023-09-20T17:57:12.272Z,2.22
2023-09-20T17:59:41.953Z,2.30
2023-09-20T18:02:10.689Z,2.97
2023-09-20T18:04:40.492Z,2.55
2023-09-20T18:07:08.714Z,2.10
2023-09-20T18:09:36.612Z,2.53
2023-09-20T18:12:05.489Z,2.20
2023-09-20T18:14:33.454Z,2.15
2023-09-20T18:17:02.744Z,2.40
2023-09-20T18:19:31.675Z,2.38
2023-09-20T18:21:59.722Z,2.72
2023-09-20T18:24:27.577Z,2.40
2023-09-20T18:26:58.545Z,2.55
2023-09-20T18:29:26.617Z,2.17
2023-09-20T18:31:54.612Z,2.40
2023-09-20T18:34:29.359Z,2.70
2023-09-20T18:36:57.311Z,2.30
2023-09-20T18:39:25.227Z,2.08
2023-09-20T18:41:53.197Z,2.47
2023-09-20T18:44:21.168Z,2.80
2023-09-20T18:46:49.309Z,2.50
2023-09-20T18:49:17.654Z,2.75
2023-09-20T18:51:46.879Z,2.53
2023-09-20T18:54:15.157Z,3.03
2023-09-20T18:56:43.176Z,2.67
2023-09-20T18:59:11.541Z,2.25
2023-09-20T19:01:40.475Z,2.83
2023-09-20T19:04:08.846Z,2.38
2023-09-20T19:06:37.959Z,2.50
2023-09-20T19:09:07.757Z,2.45
2023-09-20T19:11:36.053Z,2.13
2023-09-20T19:14:06.364Z,3.00
2023-09-20T19:16:35.079Z,2.78
2023-09-20T19:19:03.765Z,3.25
2023-09-20T19:21:32.054Z,2.03
2023-09-20T19:24:00.536Z,2.78
2023-09-20T19:26:29.876Z,2.40
2023-09-20T19:28:57.744Z,2.45
2023-09-20T19:31:25.642Z,2.05
2023-09-20T19:33:54.071Z,2.50
2023-09-20T19:36:22.213Z,2.28
2023-09-20T19:38:53.710Z,3.30
2023-09-20T19:41:22.387Z,2.08
2023-09-20T19:43:51.622Z,2.40
2023-09-20T19:46:19.810Z,2.25
2023-09-20T19:48:49.148Z,2.25
2023-09-20T19:51:17.914Z,1.98
2023-09-20T19:53:45.986Z,2.00
2023-09-20T19:56:18.016Z,1.90
2023-09-20T19:58:47.125Z,1.65
2023-09-20T20:01:16.646Z,2.30
2023-09-20T20:03:45.244Z,2.43
2023-09-20T20:06:16.760Z,2.08
2023-09-20T20:08:45.194Z,2.95
2023-09-20T20:11:14.174Z,2.13
2023-09-20T20:13:43.502Z,1.73
2023-09-20T20:16:15.261Z,2.50
2023-09-20T20:18:46.160Z,2.63
2023-09-20T20:21:16.502Z,2.65
2023-09-20T20:23:45.464Z,2.40
2023-09-20T20:26:13.933Z,2.25
2023-09-20T20:28:42.555Z,2.20
2023-09-20T20:31:12.017Z,2.00
2023-09-20T20:33:40.503Z,2.83
2023-09-20T20:36:10.245Z,2.53
2023-09-20T20:38:39.342Z,2.10
2023-09-20T20:41:08.552Z,2.65
2023-09-20T20:43:38.080Z,2.50
2023-09-20T20:46:16.206Z,2.63
2023-09-20T20:48:45.151Z,2.58
2023-09-20T20:51:15.970Z,2.15
2023-09-20T20:56:17.636Z,2.50
2023-09-20T20:58:47.720Z,2.95
2023-09-20T21:01:15.885Z,2.67
2023-09-20T21:03:45.546Z,2.28
2023-09-20T21:06:16.536Z,2.40
2023-09-20T21:08:46.177Z,2.72
2023-09-20T21:11:17.785Z,2.83
2023-09-20T21:13:46.610Z,2.63
2023-09-20T21:16:16.678Z,2.38
2023-09-20T21:18:48.805Z,2.72
2023-09-20T21:21:19.783Z,2.35
2023-09-20T21:23:47.774Z,2.22
2023-09-20T21:26:16.465Z,2.70
2023-09-20T21:28:44.560Z,2.78
2023-09-20T21:31:15.717Z,2.42
2023-09-20T21:33:44.591Z,2.30
2023-09-20T21:36:12.981Z,2.15
2023-09-20T21:38:42.601Z,1.88
2023-09-20T21:41:12.419Z,2.13
2023-09-20T21:43:41.518Z,2.47
2023-09-20T21:46:09.505Z,2.47
2023-09-20T21:48:37.450Z,2.15
2023-09-20T21:51:05.569Z,2.70
2023-09-20T21:53:33.745Z,2.20
2023-09-20T21:56:03.028Z,2.55
2023-09-20T21:58:30.904Z,2.17
2023-09-20T22:01:01.114Z,1.85
2023-09-20T22:03:29.817Z,2.70
2023-09-20T22:05:57.958Z,2.35
2023-09-20T22:08:25.993Z,2.25
2023-09-20T22:10:58.002Z,2.30
2023-09-20T22:13:27.457Z,2.63
2023-09-20T22:15:56.075Z,2.75
2023-09-20T22:18:28.097Z,2.95
2023-09-20T22:21:08.881Z,2.10
2023-09-20T22:23:38.094Z,2.20
2023-09-20T22:26:07.965Z,2.20
2023-09-20T22:28:37.542Z,2.75
2023-09-20T22:31:06.521Z,2.80
2023-09-20T22:33:37.790Z,2.28
2023-09-20T22:36:14.945Z,2.50
2023-09-20T22:38:46.360Z,2.33
2023-09-20T22:41:17.455Z,2.60
2023-09-20T22:43:46.447Z,2.58
2023-09-20T22:46:14.774Z,3.05
2023-09-20T22:48:45.001Z,2.30
2023-09-20T22:53:44.118Z,2.85
2023-09-20T22:56:12.894Z,2.80
2023-09-20T22:58:42.454Z,2.72
2023-09-20T23:01:14.794Z,2.58
2023-09-20T23:03:43.376Z,2.42
2023-09-20T23:06:12.147Z,2.20
2023-09-20T23:08:40.454Z,2.80
2023-09-20T23:11:11.213Z,2.58
2023-09-20T23:13:41.111Z,2.47
2023-09-20T23:16:16.884Z,2.25
2023-09-20T23:18:47.906Z,2.60
2023-09-20T23:21:18.326Z,2.80
2023-09-20T23:23:48.839Z,2.38
2023-09-20T23:26:18.268Z,2.42
2023-09-20T23:28:46.288Z,2.78
2023-09-20T23:31:16.803Z,2.70
2023-09-20T23:33:47.131Z,2.85
2023-09-20T23:38:45.436Z,2.33
2023-09-20T23:41:17.039Z,2.47
2023-09-20T23:43:46.854Z,2.63
2023-09-20T23:46:21.736Z,2.83
2023-09-20T23:48:53.729Z,3.50
2023-09-20T23:51:22.736Z,2.70
2023-09-20T23:53:53.753Z,2.83
2023-09-20T23:56:23.857Z,3.15
2023-09-20T23:58:52.501Z,3.35
